createdAt,value
2019-01-12T00:00:14.181Z,0.00
2019-01-12T00:01:14.168Z,0.00
2019-01-12T00:02:14.874Z,0.00
2019-01-12T00:03:14.155Z,0.00
2019-01-12T00:04:14.107Z,0.00
2019-01-12T00:05:14.149Z,0.00
2019-01-12T00:06:14.084Z,0.00
2019-01-12T00:07:14.076Z,0.00
2019-01-12T00:08:14.102Z,0.00
2019-01-12T00:09:14.098Z,0.00
2019-01-12T00:10:14.048Z,0.00
2019-01-12T00:11:14.025Z,0.00
2019-01-12T00:12:14.069Z,0.00
2019-01-12T00:13:14.038Z,0.00
2019-01-12T00:14:13.999Z,0.00
2019-01-12T00:15:13.982Z,0.00
2019-01-12T00:16:14.054Z,0.00
2019-01-12T01:38:35.739Z,0.00
2019-01-12T05:58:48.882Z,0.00
2019-01-12T06:07:42.394Z,0.00
2019-01-12T06:08:43.364Z,0.00
2019-01-12T06:21:22.470Z,0.00
2019-01-12T06:22:21.955Z,0.00
2019-01-12T06:23:21.949Z,0.00
2019-01-12T06:24:21.882Z,0.00
2019-01-12T06:25:22.204Z,0.00
2019-01-12T06:33:35.601Z,0.00
2019-01-12T06:34:35.450Z,0.00
2019-01-12T06:35:35.547Z,0.00
2019-01-12T06:36:35.386Z,0.00
2019-01-12T06:37:35.377Z,0.00
2019-01-12T06:38:35.368Z,0.00
2019-01-12T06:39:35.312Z,0.00
2019-01-12T06:40:35.305Z,0.00
2019-01-12T06:41:35.289Z,0.00
2019-01-12T06:42:35.341Z,0.00
2019-01-12T06:43:35.332Z,0.00
2019-01-12T06:44:35.293Z,0.00
2019-01-12T06:45:35.252Z,0.00
2019-01-12T06:46:35.247Z,0.00
2019-01-12T06:47:35.249Z,0.00
2019-01-12T06:48:35.228Z,0.00
2019-01-12T06:49:35.255Z,0.00
2019-01-12T06:50:35.231Z,0.00
2019-01-12T06:51:35.188Z,0.00
2019-01-12T06:52:35.430Z,0.00
2019-01-12T06:53:35.246Z,0.00
2019-01-12T06:55:46.155Z,0.00
2019-01-12T06:56:45.515Z,0.00
2019-01-12T06:57:45.497Z,0.00
2019-01-12T06:58:45.522Z,0.00
2019-01-12T06:59:45.455Z,0.00
2019-01-12T07:00:45.375Z,0.00
2019-01-12T07:01:45.329Z,0.00
2019-01-12T07:02:45.322Z,0.00
2019-01-12T07:03:45.479Z,4.00
2019-01-12T07:04:45.354Z,4.00
2019-01-12T07:05:45.351Z,4.00
2019-01-12T07:06:48.086Z,4.00
2019-01-12T07:07:45.346Z,4.00
2019-01-12T07:08:45.262Z,8.00
2019-01-12T07:09:45.241Z,4.00
2019-01-12T07:10:45.357Z,8.00
2019-01-12T07:11:47.187Z,8.00
2019-01-12T07:12:45.471Z,8.00
2019-01-12T07:13:45.257Z,8.00
2019-01-12T07:14:45.210Z,8.00
2019-01-12T07:15:45.181Z,12.00
2019-01-12T07:16:45.183Z,12.00
2019-01-12T07:17:46.116Z,12.00
2019-01-12T07:18:45.162Z,16.00
2019-01-12T07:19:45.169Z,16.00
2019-01-12T07:20:45.173Z,20.00
2019-01-12T07:21:45.132Z,24.00
2019-01-12T07:22:46.347Z,24.00
2019-01-12T07:23:45.095Z,24.00
2019-01-12T07:24:45.200Z,32.00
2019-01-12T07:25:45.139Z,36.00
2019-01-12T07:26:45.146Z,44.00
2019-01-12T07:27:45.048Z,52.00
2019-01-12T07:28:45.156Z,44.00
2019-01-12T07:29:45.033Z,64.00
2019-01-12T07:30:45.185Z,92.00
2019-01-12T07:31:45.083Z,88.00
2019-01-12T07:32:45.044Z,92.00
2019-01-12T07:33:45.015Z,72.00
2019-01-12T07:34:44.981Z,60.00
2019-01-12T07:35:44.971Z,76.00
2019-01-12T07:36:45.632Z,116.00
2019-01-12T07:37:44.980Z,160.00
2019-01-12T07:38:44.939Z,144.00
2019-01-12T07:39:44.933Z,180.00
2019-01-12T07:40:44.936Z,260.00
2019-01-12T07:41:44.905Z,324.00
2019-01-12T07:42:44.948Z,376.00
2019-01-12T07:43:44.876Z,396.00
2019-01-12T07:44:44.871Z,384.00
2019-01-12T07:45:44.938Z,384.00
2019-01-12T07:46:44.870Z,416.00
2019-01-12T07:47:44.856Z,472.00
2019-01-12T07:48:44.842Z,532.00
2019-01-12T07:49:44.822Z,568.00
2019-01-12T07:50:44.808Z,572.00
2019-01-12T07:51:44.790Z,532.00
2019-01-12T07:52:44.819Z,524.00
2019-01-12T07:53:44.828Z,492.00
2019-01-12T07:54:44.796Z,528.00
2019-01-12T07:55:44.752Z,608.00
2019-01-12T07:56:44.745Z,696.00
2019-01-12T07:57:44.735Z,764.00
2019-01-12T07:58:44.723Z,804.00
2019-01-12T07:59:44.726Z,812.00
2019-01-12T08:01:55.850Z,760.00
2019-01-12T08:02:55.592Z,748.00
2019-01-12T08:03:55.334Z,736.00
2019-01-12T08:04:55.358Z,832.00
2019-01-12T08:05:55.360Z,952.00
2019-01-12T08:06:55.466Z,1060.00
2019-01-12T08:07:55.188Z,1152.00
2019-01-12T08:08:55.251Z,1220.00
2019-01-12T08:09:55.215Z,1240.00
2019-01-12T08:10:55.186Z,1260.00
2019-01-12T08:11:56.237Z,1244.00
2019-01-12T08:12:55.247Z,1244.00
2019-01-12T08:13:55.255Z,1360.00
2019-01-12T08:14:55.153Z,1472.00
2019-01-12T08:15:55.138Z,1232.00
2019-01-12T08:16:55.305Z,972.00
2019-01-12T08:21:18.971Z,776.00
2019-01-12T08:22:18.128Z,768.00
2019-01-12T08:23:17.708Z,756.00
2019-01-12T08:24:17.728Z,800.00
2019-01-12T08:25:17.602Z,896.00
2019-01-12T08:26:17.823Z,972.00
2019-01-12T08:30:39.972Z,1092.00
2019-01-12T08:31:39.666Z,1048.00
2019-01-12T08:32:39.594Z,1084.00
2019-01-12T08:34:40.874Z,1300.00
2019-01-12T08:35:39.282Z,1852.00
2019-01-12T08:36:39.286Z,2388.00
2019-01-12T08:37:39.267Z,2424.00
2019-01-12T09:08:26.447Z,1852.00
2019-01-12T09:13:40.690Z,2740.00
2019-01-12T09:14:30.804Z,3664.00
2019-01-12T09:19:16.401Z,1844.00
2019-01-12T09:20:15.562Z,1968.00
2019-01-12T09:24:18.705Z,2652.00
2019-01-12T09:25:18.460Z,1932.00
2019-01-12T09:26:18.821Z,1620.00
2019-01-12T09:49:59.639Z,2452.00
2019-01-12T09:51:08.266Z,2492.00
2019-01-12T09:51:59.286Z,2656.00
2019-01-12T09:56:14.589Z,3684.00
2019-01-12T09:57:15.785Z,3456.00
2019-01-12T09:59:27.128Z,3376.00
2019-01-12T10:00:26.773Z,2928.00
2019-01-12T10:01:28.220Z,3208.00
2019-01-12T10:02:29.235Z,2948.00
2019-01-12T10:03:26.483Z,2624.00
2019-01-12T10:04:26.478Z,2244.00
2019-01-12T10:05:26.438Z,1848.00
2019-01-12T10:06:27.020Z,1916.00
2019-01-12T10:07:26.401Z,1768.00
2019-01-12T10:09:48.253Z,1740.00
2019-01-12T10:10:47.936Z,1800.00
2019-01-12T10:18:01.302Z,2096.00
2019-01-12T10:19:01.509Z,1816.00
2019-01-12T10:20:00.967Z,1684.00
2019-01-12T10:21:06.450Z,1552.00
2019-01-12T10:28:32.095Z,2320.00
2019-01-12T10:29:31.614Z,2116.00
2019-01-12T10:30:31.613Z,2224.00
2019-01-12T10:32:48.108Z,3192.00
2019-01-12T10:33:47.796Z,3152.00
2019-01-12T10:34:47.658Z,3120.00
2019-01-12T10:37:04.339Z,2972.00
2019-01-12T10:38:04.293Z,3180.00
2019-01-12T10:42:11.026Z,3664.00
2019-01-12T10:46:16.135Z,2804.00
2019-01-12T10:49:47.358Z,2632.00
2019-01-12T10:50:53.695Z,2636.00
2019-01-12T10:51:45.027Z,2816.00
2019-01-12T10:54:51.067Z,3748.00
2019-01-12T10:57:17.571Z,3048.00
2019-01-12T10:58:16.824Z,2828.00
2019-01-12T10:59:19.112Z,2760.00
2019-01-12T11:02:38.013Z,2456.00
2019-01-12T11:04:58.833Z,1952.00
2019-01-12T11:10:04.094Z,2484.00
2019-01-12T11:11:01.001Z,2936.00
2019-01-12T11:12:00.131Z,3244.00
2019-01-12T11:13:00.080Z,3240.00
2019-01-12T11:13:59.895Z,3352.00
2019-01-12T11:18:22.848Z,4872.00
2019-01-12T11:19:22.738Z,4088.00
2019-01-12T11:20:22.567Z,4004.00
2019-01-12T11:21:23.364Z,3420.00
2019-01-12T11:24:51.224Z,3308.00
2019-01-12T11:25:49.479Z,3388.00
2019-01-12T11:26:49.074Z,3804.00
2019-01-12T11:27:48.791Z,3408.00
2019-01-12T11:28:48.859Z,3604.00
2019-01-12T11:29:48.947Z,3192.00
2019-01-12T11:30:48.833Z,3212.00
2019-01-12T11:31:49.523Z,3628.00
2019-01-12T11:32:48.737Z,3416.00
2019-01-12T11:33:48.747Z,3612.00
2019-01-12T11:34:48.716Z,4136.00
2019-01-12T11:35:48.759Z,4824.00
2019-01-12T11:36:49.805Z,3552.00
2019-01-12T11:37:48.678Z,3548.00
2019-01-12T11:38:48.774Z,3796.00
2019-01-12T11:39:48.658Z,2976.00
2019-01-12T11:40:48.792Z,3148.00
2019-01-12T11:41:48.743Z,3896.00
2019-01-12T11:42:48.668Z,4396.00
2019-01-12T11:43:48.618Z,4388.00
2019-01-12T11:44:48.605Z,4428.00
2019-01-12T11:47:15.928Z,4500.00
2019-01-12T11:48:15.446Z,4332.00
2019-01-12T11:49:15.487Z,4660.00
2019-01-12T11:50:29.161Z,4504.00
2019-01-12T11:51:15.660Z,4608.00
2019-01-12T11:52:15.404Z,3184.00
2019-01-12T11:53:16.225Z,3328.00
2019-01-12T11:54:15.279Z,3644.00
2019-01-12T11:55:15.223Z,3612.00
2019-01-12T11:56:15.222Z,3380.00
2019-01-12T11:57:19.106Z,2984.00
2019-01-12T11:58:15.220Z,3176.00
2019-01-12T11:59:15.220Z,3628.00
2019-01-12T12:00:15.178Z,3644.00
2019-01-12T12:02:46.111Z,4460.00
2019-01-12T12:03:27.609Z,4420.00
2019-01-12T12:04:30.446Z,4804.00
2019-01-12T12:07:51.617Z,3884.00
2019-01-12T12:08:45.497Z,3140.00
2019-01-12T12:09:45.646Z,2516.00
2019-01-12T12:10:46.185Z,2628.00
2019-01-12T12:11:45.301Z,2404.00
2019-01-12T12:12:45.303Z,2724.00
2019-01-12T12:13:45.347Z,2980.00
2019-01-12T12:14:47.394Z,3380.00
2019-01-12T12:17:14.793Z,2888.00
2019-01-12T12:17:56.071Z,2760.00
2019-01-12T12:19:00.144Z,2520.00
2019-01-12T12:19:56.074Z,2756.00
2019-01-12T12:20:56.068Z,3424.00
2019-01-12T12:21:56.190Z,2924.00
2019-01-12T12:23:00.733Z,2072.00
2019-01-12T12:23:56.019Z,2132.00
2019-01-12T12:24:56.075Z,2076.00
2019-01-12T12:25:56.062Z,2356.00
2019-01-12T12:26:55.923Z,2608.00
2019-01-12T12:30:42.889Z,2252.00
2019-01-12T12:36:00.189Z,3736.00
2019-01-12T12:36:59.625Z,3044.00
2019-01-12T12:37:59.725Z,4004.00
2019-01-12T12:49:39.250Z,4308.00
2019-01-12T12:50:38.660Z,4140.00
2019-01-12T12:51:38.787Z,3988.00
2019-01-12T12:52:38.723Z,3720.00
2019-01-12T12:53:38.733Z,3876.00
2019-01-12T12:54:38.585Z,3008.00
2019-01-12T12:55:38.735Z,3108.00
2019-01-12T12:56:39.485Z,3116.00
2019-01-12T12:57:41.528Z,2376.00
2019-01-12T12:58:38.553Z,2632.00
2019-01-12T12:59:38.573Z,2772.00
2019-01-12T13:00:38.578Z,2952.00
2019-01-12T13:01:38.578Z,2892.00
2019-01-12T13:02:38.535Z,2536.00
2019-01-12T13:03:38.481Z,2216.00
2019-01-12T13:04:38.479Z,2160.00
2019-01-12T13:05:38.669Z,2088.00
2019-01-12T13:06:38.511Z,2184.00
2019-01-12T13:07:38.614Z,3640.00
2019-01-12T13:08:38.472Z,3852.00
2019-01-12T13:09:38.414Z,3608.00
2019-01-12T13:10:38.414Z,3576.00
2019-01-12T13:11:38.834Z,3180.00
2019-01-12T13:30:36.897Z,3120.00
2019-01-12T13:32:51.471Z,2872.00
2019-01-12T13:35:26.060Z,2740.00
2019-01-12T13:37:46.365Z,1996.00
2019-01-12T13:38:41.222Z,2160.00
2019-01-12T13:39:41.064Z,2348.00
2019-01-12T13:40:41.017Z,3184.00
2019-01-12T13:41:41.085Z,2868.00
2019-01-12T13:42:40.969Z,2364.00
2019-01-12T13:43:40.889Z,2016.00
2019-01-12T13:44:40.940Z,2248.00
2019-01-12T13:45:40.979Z,1720.00
2019-01-12T13:46:40.951Z,1936.00
2019-01-12T13:47:40.982Z,2264.00
2019-01-12T13:48:40.888Z,2452.00
2019-01-12T13:49:40.891Z,2064.00
2019-01-12T13:50:41.041Z,2024.00
2019-01-12T14:25:46.188Z,1284.00
2019-01-12T14:32:08.646Z,892.00
2019-01-12T14:33:07.847Z,688.00
2019-01-12T14:34:12.441Z,608.00
2019-01-12T14:35:07.674Z,624.00
2019-01-12T14:36:07.574Z,644.00
2019-01-12T14:37:08.203Z,700.00
2019-01-12T14:38:10.337Z,604.00
2019-01-12T14:39:07.556Z,532.00
2019-01-12T14:40:07.507Z,560.00
2019-01-12T14:41:07.563Z,512.00
2019-01-12T14:42:07.539Z,472.00
2019-01-12T14:43:08.186Z,480.00
2019-01-12T14:44:07.614Z,448.00
2019-01-12T14:45:08.285Z,756.00
2019-01-12T14:46:07.465Z,424.00
2019-01-12T14:47:07.549Z,516.00
2019-01-12T14:48:07.546Z,540.00
2019-01-12T14:49:07.410Z,564.00
2019-01-12T14:50:07.500Z,540.00
2019-01-12T14:52:59.259Z,824.00
2019-01-12T14:53:58.638Z,632.00
2019-01-12T14:54:58.582Z,544.00
2019-01-12T14:55:58.484Z,476.00
2019-01-12T14:56:58.771Z,432.00
2019-01-12T14:58:02.716Z,380.00
2019-01-12T14:58:58.545Z,356.00
2019-01-12T14:59:58.351Z,356.00
2019-01-12T15:00:58.354Z,308.00
2019-01-12T15:01:58.342Z,328.00
2019-01-12T15:02:58.317Z,248.00
2019-01-12T15:03:58.291Z,260.00
2019-01-12T15:04:58.292Z,228.00
2019-01-12T15:05:58.262Z,232.00
2019-01-12T15:06:58.534Z,236.00
2019-01-12T15:07:58.233Z,196.00
2019-01-12T15:08:58.264Z,176.00
2019-01-12T15:09:58.208Z,176.00
2019-01-12T15:10:58.272Z,172.00
2019-01-12T15:11:58.387Z,132.00
2019-01-12T15:12:58.204Z,92.00
2019-01-12T15:13:58.225Z,96.00
2019-01-12T15:14:58.195Z,108.00
2019-01-12T15:15:58.156Z,136.00
2019-01-12T15:16:58.141Z,244.00
2019-01-12T15:17:58.125Z,256.00
2019-01-12T15:18:58.190Z,260.00
2019-01-12T15:19:58.099Z,268.00
2019-01-12T15:20:58.098Z,276.00
2019-01-12T15:21:58.083Z,300.00
2019-01-12T15:22:58.076Z,316.00
2019-01-12T15:23:58.059Z,312.00
2019-01-12T15:24:58.046Z,328.00
2019-01-12T15:25:58.097Z,384.00
2019-01-12T15:26:59.932Z,412.00
2019-01-12T15:27:58.047Z,388.00
2019-01-12T15:30:10.525Z,260.00
2019-01-12T15:31:10.155Z,212.00
2019-01-12T15:32:10.035Z,176.00
2019-01-12T15:33:10.090Z,152.00
2019-01-12T15:34:09.985Z,152.00
2019-01-12T15:35:09.949Z,184.00
2019-01-12T15:36:09.929Z,192.00
2019-01-12T15:37:09.929Z,200.00
2019-01-12T15:38:09.973Z,164.00
2019-01-12T15:39:09.926Z,124.00
2019-01-12T15:40:09.881Z,116.00
2019-01-12T15:41:09.911Z,128.00
2019-01-12T15:42:09.851Z,124.00
2019-01-12T15:43:09.856Z,112.00
2019-01-12T15:44:09.853Z,100.00
2019-01-12T15:45:09.825Z,68.00
2019-01-12T15:46:09.850Z,56.00
2019-01-12T15:47:09.803Z,56.00
2019-01-12T15:48:09.817Z,64.00
2019-01-12T15:49:09.819Z,64.00
2019-01-12T15:50:09.775Z,48.00
2019-01-12T15:51:09.760Z,40.00
2019-01-12T15:52:09.838Z,48.00
2019-01-12T15:53:09.807Z,44.00
2019-01-12T15:54:09.727Z,44.00
2019-01-12T15:55:09.725Z,36.00
2019-01-12T15:56:09.712Z,32.00
2019-01-12T15:57:09.718Z,24.00
2019-01-12T15:58:15.988Z,20.00
2019-01-12T15:59:10.750Z,20.00
2019-01-12T16:00:09.660Z,16.00
2019-01-12T16:01:09.797Z,16.00
2019-01-12T16:02:09.636Z,12.00
2019-01-12T16:03:09.657Z,12.00
2019-01-12T16:04:09.648Z,12.00
2019-01-12T16:05:09.632Z,8.00
2019-01-12T16:06:09.651Z,8.00
2019-01-12T16:07:09.625Z,8.00
2019-01-12T16:08:09.741Z,4.00
2019-01-12T16:09:09.556Z,0.00
2019-01-12T16:10:09.552Z,4.00
2019-01-12T16:11:09.608Z,4.00
2019-01-12T16:12:09.520Z,0.00
2019-01-12T16:13:09.608Z,0.00
2019-01-12T16:14:09.504Z,0.00
2019-01-12T16:15:09.505Z,0.00
2019-01-12T16:16:09.527Z,0.00
2019-01-12T16:17:11.021Z,0.00
2019-01-12T16:18:09.468Z,0.00
2019-01-12T16:19:09.451Z,0.00
2019-01-12T16:20:09.480Z,0.00
2019-01-12T16:21:09.471Z,0.00
2019-01-12T16:22:09.478Z,0.00
2019-01-12T16:23:09.422Z,0.00
2019-01-12T16:24:09.403Z,0.00
2019-01-12T16:25:09.395Z,0.00
2019-01-12T16:26:09.603Z,0.00
2019-01-12T16:27:09.415Z,0.00
2019-01-12T16:28:09.384Z,0.00
2019-01-12T16:29:09.365Z,0.00
2019-01-12T16:30:09.361Z,0.00
2019-01-12T16:31:09.488Z,0.00
2019-01-12T16:32:09.382Z,0.00
2019-01-12T16:33:10.006Z,0.00
2019-01-12T16:34:09.308Z,0.00
2019-01-12T16:35:09.568Z,0.00
2019-01-12T16:36:09.280Z,0.00
2019-01-12T16:37:09.308Z,0.00
2019-01-12T16:38:09.275Z,0.00
2019-01-12T16:39:09.223Z,0.00
2019-01-12T16:40:09.290Z,0.00
2019-01-12T16:41:09.216Z,0.00
2019-01-12T16:42:09.234Z,0.00
2019-01-12T16:43:09.187Z,0.00
2019-01-12T16:44:09.179Z,0.00
2019-01-12T16:45:09.302Z,0.00
2019-01-12T16:46:09.231Z,0.00
2019-01-12T16:47:09.170Z,0.00
2019-01-12T16:48:09.140Z,0.00
2019-01-12T16:49:09.155Z,0.00
2019-01-12T16:50:09.112Z,0.00
2019-01-12T16:51:09.107Z,0.00
2019-01-12T16:52:09.095Z,0.00
2019-01-12T16:53:09.104Z,0.00
2019-01-12T16:54:09.130Z,0.00
2019-01-12T16:55:09.069Z,0.00
2019-01-12T16:56:09.048Z,0.00
2019-01-12T16:57:09.038Z,0.00
2019-01-12T16:58:09.044Z,0.00
2019-01-12T16:59:09.019Z,0.00
2019-01-12T17:00:09.155Z,0.00
2019-01-12T17:01:09.141Z,0.00
2019-01-12T17:02:09.075Z,0.00
2019-01-12T17:03:08.975Z,0.00
2019-01-12T17:09:36.941Z,0.00
2019-01-12T17:10:36.697Z,0.00
2019-01-12T17:11:36.843Z,0.00
2019-01-12T17:12:36.394Z,0.00
2019-01-12T17:13:36.294Z,0.00
2019-01-12T17:14:36.294Z,0.00
2019-01-12T17:15:36.285Z,0.00
2019-01-12T17:16:36.366Z,0.00
2019-01-12T17:17:36.231Z,0.00
2019-01-12T17:18:36.221Z,0.00
2019-01-12T17:19:36.197Z,0.00
2019-01-12T17:20:36.224Z,0.00
2019-01-12T17:21:36.181Z,0.00
2019-01-12T17:22:36.207Z,0.00
2019-01-12T17:23:36.168Z,0.00
2019-01-12T17:24:36.157Z,0.00
2019-01-12T17:25:36.180Z,0.00
2019-01-12T17:26:36.120Z,0.00
2019-01-12T17:30:22.778Z,0.00
2019-01-12T17:31:22.330Z,0.00
2019-01-12T17:32:22.281Z,0.00
2019-01-12T17:33:22.382Z,0.00
2019-01-12T17:34:22.219Z,0.00
2019-01-12T17:35:22.199Z,0.00
2019-01-12T17:36:22.233Z,0.00
2019-01-12T17:37:22.128Z,0.00
2019-01-12T17:38:22.135Z,0.00
2019-01-12T17:39:22.117Z,0.00
2019-01-12T17:40:22.206Z,0.00
2019-01-12T17:41:22.085Z,0.00
2019-01-12T17:42:22.102Z,0.00
2019-01-12T17:43:22.076Z,0.00
2019-01-12T17:44:22.153Z,0.00
2019-01-12T17:45:22.243Z,0.00
2019-01-12T17:50:58.091Z,0.00
2019-01-12T17:51:57.041Z,0.00
2019-01-12T17:52:57.005Z,0.00
2019-01-12T17:55:17.294Z,0.00
2019-01-12T18:08:46.523Z,0.00
2019-01-12T18:12:45.085Z,0.00
2019-01-12T18:13:47.402Z,0.00
2019-01-12T18:14:44.892Z,0.00
2019-01-12T18:44:36.134Z,0.00
2019-01-12T18:45:36.418Z,0.00
2019-01-12T18:48:36.344Z,0.00
2019-01-12T18:49:35.914Z,0.00
2019-01-12T18:50:35.863Z,0.00
2019-01-12T18:51:35.884Z,0.00
2019-01-12T18:52:35.780Z,0.00
2019-01-12T18:53:35.761Z,0.00
2019-01-12T18:54:35.785Z,0.00
2019-01-12T18:55:35.747Z,0.00
2019-01-12T18:56:35.728Z,0.00
2019-01-12T18:57:35.757Z,0.00
2019-01-12T18:58:35.699Z,0.00
2019-01-12T18:59:35.717Z,0.00
2019-01-12T19:00:35.685Z,0.00
2019-01-12T19:01:35.756Z,0.00
2019-01-12T19:02:44.624Z,0.00
2019-01-12T19:03:35.731Z,0.00
2019-01-12T19:04:35.717Z,0.00
2019-01-12T19:05:35.750Z,0.00
2019-01-12T19:06:35.639Z,0.00
2019-01-12T19:07:35.650Z,0.00
2019-01-12T19:08:35.647Z,0.00
2019-01-12T19:10:36.595Z,0.00
2019-01-12T19:22:04.127Z,0.00
2019-01-12T19:23:03.799Z,0.00
2019-01-12T19:24:03.644Z,0.00
2019-01-12T19:25:04.211Z,0.00
2019-01-12T19:26:03.689Z,0.00
2019-01-12T19:27:03.591Z,0.00
2019-01-12T19:28:03.528Z,0.00
2019-01-12T19:29:06.646Z,0.00
2019-01-12T19:31:32.148Z,0.00
2019-01-12T19:32:31.495Z,0.00
2019-01-12T20:29:22.301Z,0.00
2019-01-12T20:30:21.916Z,0.00
2019-01-12T20:31:21.821Z,0.00
2019-01-12T20:32:22.657Z,0.00
2019-01-12T20:33:21.883Z,0.00
2019-01-12T20:34:21.718Z,0.00
2019-01-12T20:35:21.654Z,0.00
2019-01-12T20:36:21.724Z,0.00
2019-01-12T20:37:21.634Z,0.00
2019-01-12T20:38:21.662Z,0.00
2019-01-12T20:39:21.636Z,0.00
2019-01-12T20:40:21.780Z,0.00
2019-01-12T20:41:21.607Z,0.00
2019-01-12T20:43:50.148Z,0.00
2019-01-12T20:44:50.696Z,0.00
2019-01-12T20:45:49.992Z,0.00
2019-01-12T21:29:18.282Z,0.00
2019-01-12T21:30:17.035Z,0.00
2019-01-12T21:31:17.170Z,0.00
2019-01-12T21:33:56.604Z,0.00
2019-01-12T21:41:48.908Z,0.00
2019-01-12T21:44:22.031Z,0.00
2019-01-12T21:45:21.906Z,0.00
2019-01-12T21:46:22.469Z,0.00
2019-01-12T21:47:22.297Z,0.00
2019-01-12T21:48:21.662Z,0.00
2019-01-12T21:49:21.855Z,0.00
2019-01-12T21:50:21.649Z,0.00
2019-01-12T21:51:21.702Z,0.00
2019-01-12T21:52:21.661Z,0.00
2019-01-12T21:53:22.905Z,0.00
2019-01-12T21:54:21.683Z,0.00
2019-01-12T21:55:21.585Z,0.00
2019-01-12T21:56:21.597Z,0.00
2019-01-12T21:57:21.580Z,0.00
2019-01-12T21:58:21.593Z,0.00
2019-01-12T21:59:21.693Z,0.00
2019-01-12T22:00:21.558Z,0.00
2019-01-12T22:01:22.370Z,0.00
2019-01-12T22:04:22.947Z,0.00
2019-01-12T22:05:21.818Z,0.00
2019-01-12T22:06:26.551Z,0.00
2019-01-12T22:07:21.580Z,0.00
2019-01-12T22:08:21.676Z,0.00
2019-01-12T22:09:21.669Z,0.00
2019-01-12T22:10:21.583Z,0.00
2019-01-12T22:11:21.618Z,0.00
2019-01-12T22:12:21.529Z,0.00
2019-01-12T22:13:21.572Z,0.00
2019-01-12T22:14:21.902Z,0.00
2019-01-12T22:15:21.577Z,0.00
2019-01-12T22:16:21.484Z,0.00
2019-01-12T22:17:21.488Z,0.00
2019-01-12T22:18:21.492Z,0.00
2019-01-12T22:19:21.539Z,0.00
2019-01-12T22:20:21.451Z,0.00
2019-01-12T22:21:21.506Z,0.00
2019-01-12T22:22:21.449Z,0.00
2019-01-12T22:23:24.060Z,0.00
2019-01-12T22:27:30.945Z,0.00
2019-01-12T22:28:30.498Z,0.00
2019-01-12T22:29:36.170Z,0.00
2019-01-12T22:35:46.280Z,0.00
2019-01-12T22:36:50.951Z,0.00
2019-01-12T22:41:55.109Z,0.00
2019-01-12T22:42:58.458Z,0.00
2019-01-12T22:43:56.450Z,0.00
2019-01-12T22:50:27.796Z,0.00
2019-01-12T22:51:28.066Z,0.00
2019-01-12T22:52:27.831Z,0.00
2019-01-12T22:53:27.842Z,0.00
2019-01-12T22:54:29.864Z,0.00
2019-01-12T22:55:27.629Z,0.00
2019-01-12T22:56:27.583Z,0.00
2019-01-12T22:57:27.607Z,0.00
2019-01-12T22:58:27.618Z,0.00
2019-01-12T22:59:27.560Z,0.00
2019-01-12T23:00:27.640Z,0.00
2019-01-12T23:01:27.524Z,0.00
2019-01-12T23:02:28.199Z,0.00
2019-01-12T23:03:27.503Z,0.00
2019-01-12T23:04:27.511Z,0.00
2019-01-12T23:05:27.553Z,0.00
2019-01-12T23:06:27.492Z,0.00
2019-01-12T23:07:27.474Z,0.00
2019-01-12T23:08:27.491Z,0.00
2019-01-12T23:09:27.496Z,0.00
2019-01-12T23:10:27.478Z,0.00
2019-01-12T23:11:27.418Z,0.00
2019-01-12T23:12:27.438Z,0.00
2019-01-12T23:13:27.417Z,0.00
2019-01-12T23:14:27.392Z,0.00
2019-01-12T23:15:28.566Z,0.00
2019-01-12T23:16:27.414Z,0.00
2019-01-12T23:17:27.493Z,0.00
2019-01-12T23:20:07.113Z,0.00
2019-01-12T23:21:07.121Z,0.00
2019-01-12T23:22:06.899Z,0.00
2019-01-12T23:49:16.078Z,0.00
2019-01-12T23:50:16.000Z,0.00
2019-01-12T23:51:16.189Z,0.00
2019-01-12T23:52:17.662Z,0.00
2019-01-12T23:53:15.942Z,0.00
2019-01-12T23:54:15.844Z,0.00
2019-01-12T23:55:15.965Z,0.00
2019-01-12T23:56:15.827Z,0.00
2019-01-12T23:57:15.814Z,0.00
2019-01-12T23:58:15.923Z,0.00
2019-01-12T23:59:16.063Z,0.00
